sensor_id;sensor_type;location;lat;lon;timestamp;P1;durP1;ratioP1;P2;durP2;ratioP2
16352;SDS011;8286;51.274;9.542;2023-05-29T00:00:33;3.40;;;3.10;;
16352;SDS011;8286;51.274;9.542;2023-05-29T00:03:00;5.50;;;2.63;;
16352;SDS011;8286;51.274;9.542;2023-05-29T00:05:27;4.53;;;2.43;;
16352;SDS011;8286;51.274;9.542;2023-05-29T00:07:54;2.80;;;2.13;;
16352;SDS011;8286;51.274;9.542;2023-05-29T00:10:21;3.27;;;2.60;;
16352;SDS011;8286;51.274;9.542;2023-05-29T00:12:47;4.30;;;2.60;;
16352;SDS011;8286;51.274;9.542;2023-05-29T00:15:14;4.03;;;2.87;;
16352;SDS011;8286;51.274;9.542;2023-05-29T00:17:41;2.77;;;2.27;;
16352;SDS011;8286;51.274;9.542;2023-05-29T00:20:08;4.63;;;2.80;;
16352;SDS011;8286;51.274;9.542;2023-05-29T00:22:36;4.43;;;2.40;;
16352;SDS011;8286;51.274;9.542;2023-05-29T00:25:04;4.53;;;2.80;;
16352;SDS011;8286;51.274;9.542;2023-05-29T00:27:31;2.93;;;2.60;;
16352;SDS011;8286;51.274;9.542;2023-05-29T00:29:58;4.70;;;2.57;;
16352;SDS011;8286;51.274;9.542;2023-05-29T00:32:25;2.70;;;2.30;;
16352;SDS011;8286;51.274;9.542;2023-05-29T00:34:52;2.90;;;2.07;;
16352;SDS011;8286;51.274;9.542;2023-05-29T00:37:18;6.67;;;2.83;;
16352;SDS011;8286;51.274;9.542;2023-05-29T00:39:46;4.67;;;2.63;;
16352;SDS011;8286;51.274;9.542;2023-05-29T00:42:14;4.33;;;2.80;;
16352;SDS011;8286;51.274;9.542;2023-05-29T00:44:41;3.57;;;2.67;;
16352;SDS011;8286;51.274;9.542;2023-05-29T00:47:07;3.53;;;2.73;;
16352;SDS011;8286;51.274;9.542;2023-05-29T00:49:34;5.07;;;2.87;;
16352;SDS011;8286;51.274;9.542;2023-05-29T00:52:02;3.67;;;2.80;;
16352;SDS011;8286;51.274;9.542;2023-05-29T00:54:30;8.67;;;2.97;;
16352;SDS011;8286;51.274;9.542;2023-05-29T00:56:57;4.00;;;3.10;;
16352;SDS011;8286;51.274;9.542;2023-05-29T00:59:26;7.13;;;3.00;;
16352;SDS011;8286;51.274;9.542;2023-05-29T01:01:53;11.47;;;2.83;;
16352;SDS011;8286;51.274;9.542;2023-05-29T01:04:20;7.23;;;3.00;;
16352;SDS011;8286;51.274;9.542;2023-05-29T01:06:48;4.07;;;3.00;;
16352;SDS011;8286;51.274;9.542;2023-05-29T01:09:16;3.43;;;2.87;;
16352;SDS011;8286;51.274;9.542;2023-05-29T01:11:45;5.87;;;3.23;;
16352;SDS011;8286;51.274;9.542;2023-05-29T01:14:17;4.23;;;2.90;;
16352;SDS011;8286;51.274;9.542;2023-05-29T01:16:51;4.83;;;2.80;;
16352;SDS011;8286;51.274;9.542;2023-05-29T01:19:26;4.73;;;2.50;;
16352;SDS011;8286;51.274;9.542;2023-05-29T01:22:08;5.70;;;2.90;;
16352;SDS011;8286;51.274;9.542;2023-05-29T01:24:42;4.33;;;3.10;;
16352;SDS011;8286;51.274;9.542;2023-05-29T01:27:17;3.83;;;2.90;;
16352;SDS011;8286;51.274;9.542;2023-05-29T01:29:44;7.03;;;3.20;;
16352;SDS011;8286;51.274;9.542;2023-05-29T01:32:12;6.37;;;3.00;;
16352;SDS011;8286;51.274;9.542;2023-05-29T01:34:39;3.40;;;3.10;;
16352;SDS011;8286;51.274;9.542;2023-05-29T01:37:05;4.97;;;3.43;;
16352;SDS011;8286;51.274;9.542;2023-05-29T01:39:32;4.93;;;3.80;;
16352;SDS011;8286;51.274;9.542;2023-05-29T01:41:59;6.47;;;3.40;;
16352;SDS011;8286;51.274;9.542;2023-05-29T01:44:27;6.33;;;3.17;;
16352;SDS011;8286;51.274;9.542;2023-05-29T01:46:55;5.67;;;3.30;;
16352;SDS011;8286;51.274;9.542;2023-05-29T01:49:21;5.23;;;3.73;;
16352;SDS011;8286;51.274;9.542;2023-05-29T01:51:49;4.60;;;3.17;;
16352;SDS011;8286;51.274;9.542;2023-05-29T01:54:16;7.33;;;3.30;;
16352;SDS011;8286;51.274;9.542;2023-05-29T01:56:42;5.57;;;2.93;;
16352;SDS011;8286;51.274;9.542;2023-05-29T01:59:11;6.03;;;3.20;;
16352;SDS011;8286;51.274;9.542;2023-05-29T02:01:40;4.57;;;3.00;;
16352;SDS011;8286;51.274;9.542;2023-05-29T02:04:06;5.63;;;3.37;;
16352;SDS011;8286;51.274;9.542;2023-05-29T02:06:33;4.87;;;3.30;;
16352;SDS011;8286;51.274;9.542;2023-05-29T02:08:59;4.17;;;3.00;;
16352;SDS011;8286;51.274;9.542;2023-05-29T02:11:26;4.93;;;3.27;;
16352;SDS011;8286;51.274;9.542;2023-05-29T02:13:53;3.83;;;3.13;;
16352;SDS011;8286;51.274;9.542;2023-05-29T02:16:19;5.50;;;3.53;;
16352;SDS011;8286;51.274;9.542;2023-05-29T02:18:47;7.50;;;3.33;;
16352;SDS011;8286;51.274;9.542;2023-05-29T02:21:14;5.90;;;3.53;;
16352;SDS011;8286;51.274;9.542;2023-05-29T02:23:41;9.60;;;4.23;;
16352;SDS011;8286;51.274;9.542;2023-05-29T02:26:07;12.07;;;3.93;;
16352;SDS011;8286;51.274;9.542;2023-05-29T02:28:34;6.57;;;4.07;;
16352;SDS011;8286;51.274;9.542;2023-05-29T02:31:01;6.87;;;3.70;;
16352;SDS011;8286;51.274;9.542;2023-05-29T02:33:28;5.67;;;3.70;;
16352;SDS011;8286;51.274;9.542;2023-05-29T02:35:56;7.57;;;4.17;;
16352;SDS011;8286;51.274;9.542;2023-05-29T02:38:23;9.17;;;4.43;;
16352;SDS011;8286;51.274;9.542;2023-05-29T02:40:49;9.17;;;4.10;;
16352;SDS011;8286;51.274;9.542;2023-05-29T02:43:16;8.37;;;3.93;;
16352;SDS011;8286;51.274;9.542;2023-05-29T02:45:42;6.27;;;3.80;;
16352;SDS011;8286;51.274;9.542;2023-05-29T02:48:09;8.90;;;4.70;;
16352;SDS011;8286;51.274;9.542;2023-05-29T02:50:35;5.97;;;4.10;;
16352;SDS011;8286;51.274;9.542;2023-05-29T02:53:03;5.07;;;4.10;;
16352;SDS011;8286;51.274;9.542;2023-05-29T02:55:30;5.13;;;3.97;;
16352;SDS011;8286;51.274;9.542;2023-05-29T02:58:00;6.97;;;4.03;;
16352;SDS011;8286;51.274;9.542;2023-05-29T03:00:27;8.27;;;4.70;;
16352;SDS011;8286;51.274;9.542;2023-05-29T03:02:54;7.20;;;4.37;;
16352;SDS011;8286;51.274;9.542;2023-05-29T03:05:21;6.47;;;3.87;;
16352;SDS011;8286;51.274;9.542;2023-05-29T03:07:47;8.47;;;4.70;;
16352;SDS011;8286;51.274;9.542;2023-05-29T03:10:15;7.20;;;4.30;;
16352;SDS011;8286;51.274;9.542;2023-05-29T03:12:43;10.33;;;4.57;;
16352;SDS011;8286;51.274;9.542;2023-05-29T03:15:10;6.90;;;4.27;;
16352;SDS011;8286;51.274;9.542;2023-05-29T03:17:36;6.83;;;4.03;;
16352;SDS011;8286;51.274;9.542;2023-05-29T03:20:03;11.97;;;4.97;;
16352;SDS011;8286;51.274;9.542;2023-05-29T03:22:32;9.00;;;4.10;;
16352;SDS011;8286;51.274;9.542;2023-05-29T03:24:59;7.30;;;4.07;;
16352;SDS011;8286;51.274;9.542;2023-05-29T03:27:26;10.07;;;4.43;;
16352;SDS011;8286;51.274;9.542;2023-05-29T03:29:54;9.47;;;4.80;;
16352;SDS011;8286;51.274;9.542;2023-05-29T03:32:20;5.23;;;4.30;;
16352;SDS011;8286;51.274;9.542;2023-05-29T03:34:47;9.27;;;4.33;;
16352;SDS011;8286;51.274;9.542;2023-05-29T03:37:13;5.37;;;4.17;;
16352;SDS011;8286;51.274;9.542;2023-05-29T03:39:40;9.17;;;4.23;;
16352;SDS011;8286;51.274;9.542;2023-05-29T03:42:06;8.67;;;3.50;;
16352;SDS011;8286;51.274;9.542;2023-05-29T03:44:34;6.00;;;4.10;;
16352;SDS011;8286;51.274;9.542;2023-05-29T03:47:01;6.83;;;4.20;;
16352;SDS011;8286;51.274;9.542;2023-05-29T03:49:27;8.97;;;4.77;;
16352;SDS011;8286;51.274;9.542;2023-05-29T03:51:54;6.37;;;3.93;;
16352;SDS011;8286;51.274;9.542;2023-05-29T03:54:20;5.77;;;4.00;;
16352;SDS011;8286;51.274;9.542;2023-05-29T03:56:47;5.47;;;3.87;;
16352;SDS011;8286;51.274;9.542;2023-05-29T03:59:13;5.93;;;4.23;;
16352;SDS011;8286;51.274;9.542;2023-05-29T04:01:41;8.37;;;4.83;;
16352;SDS011;8286;51.274;9.542;2023-05-29T04:04:08;7.67;;;4.03;;
16352;SDS011;8286;51.274;9.542;2023-05-29T04:06:35;11.27;;;5.20;;
16352;SDS011;8286;51.274;9.542;2023-05-29T04:09:03;6.27;;;4.30;;
16352;SDS011;8286;51.274;9.542;2023-05-29T04:11:30;7.93;;;3.97;;
16352;SDS011;8286;51.274;9.542;2023-05-29T04:13:59;9.77;;;4.03;;
16352;SDS011;8286;51.274;9.542;2023-05-29T04:16:26;7.80;;;4.10;;
16352;SDS011;8286;51.274;9.542;2023-05-29T04:18:54;8.20;;;4.10;;
16352;SDS011;8286;51.274;9.542;2023-05-29T04:21:21;6.93;;;4.20;;
16352;SDS011;8286;51.274;9.542;2023-05-29T04:23:47;15.17;;;4.47;;
16352;SDS011;8286;51.274;9.542;2023-05-29T04:26:14;7.67;;;3.80;;
16352;SDS011;8286;51.274;9.542;2023-05-29T04:28:40;6.50;;;3.77;;
16352;SDS011;8286;51.274;9.542;2023-05-29T04:31:07;5.77;;;4.03;;
16352;SDS011;8286;51.274;9.542;2023-05-29T04:33:39;4.87;;;4.10;;
16352;SDS011;8286;51.274;9.542;2023-05-29T04:36:07;6.17;;;3.70;;
16352;SDS011;8286;51.274;9.542;2023-05-29T04:38:36;5.00;;;3.57;;
16352;SDS011;8286;51.274;9.542;2023-05-29T04:41:02;4.37;;;3.27;;
16352;SDS011;8286;51.274;9.542;2023-05-29T04:43:29;5.13;;;3.20;;
16352;SDS011;8286;51.274;9.542;2023-05-29T04:45:55;8.52;;;3.38;;
16352;SDS011;8286;51.274;9.542;2023-05-29T04:48:23;4.25;;;3.00;;
16352;SDS011;8286;51.274;9.542;2023-05-29T04:50:50;7.78;;;3.35;;
16352;SDS011;8286;51.274;9.542;2023-05-29T04:53:17;4.63;;;3.30;;
16352;SDS011;8286;51.274;9.542;2023-05-29T04:55:44;4.20;;;2.75;;
16352;SDS011;8286;51.274;9.542;2023-05-29T04:58:11;5.40;;;3.03;;
16352;SDS011;8286;51.274;9.542;2023-05-29T05:00:38;4.80;;;3.17;;
16352;SDS011;8286;51.274;9.542;2023-05-29T05:03:04;4.50;;;3.53;;
16352;SDS011;8286;51.274;9.542;2023-05-29T05:05:31;3.22;;;2.80;;
16352;SDS011;8286;51.274;9.542;2023-05-29T05:07:58;4.70;;;2.70;;
16352;SDS011;8286;51.274;9.542;2023-05-29T05:10:26;3.92;;;2.70;;
16352;SDS011;8286;51.274;9.542;2023-05-29T05:12:52;4.38;;;2.92;;
16352;SDS011;8286;51.274;9.542;2023-05-29T05:15:19;3.88;;;2.70;;
16352;SDS011;8286;51.274;9.542;2023-05-29T05:17:45;6.30;;;3.22;;
16352;SDS011;8286;51.274;9.542;2023-05-29T05:20:12;4.55;;;2.85;;
16352;SDS011;8286;51.274;9.542;2023-05-29T05:22:40;5.60;;;3.13;;
16352;SDS011;8286;51.274;9.542;2023-05-29T05:25:07;5.72;;;2.72;;
16352;SDS011;8286;51.274;9.542;2023-05-29T05:27:35;4.63;;;2.80;;
16352;SDS011;8286;51.274;9.542;2023-05-29T05:30:02;3.10;;;2.72;;
16352;SDS011;8286;51.274;9.542;2023-05-29T05:32:28;4.68;;;2.72;;
16352;SDS011;8286;51.274;9.542;2023-05-29T05:34:55;5.82;;;2.83;;
16352;SDS011;8286;51.274;9.542;2023-05-29T05:37:21;6.13;;;2.80;;
16352;SDS011;8286;51.274;9.542;2023-05-29T05:39:48;4.53;;;2.92;;
16352;SDS011;8286;51.274;9.542;2023-05-29T05:42:15;5.82;;;2.58;;
16352;SDS011;8286;51.274;9.542;2023-05-29T05:44:42;5.95;;;2.97;;
16352;SDS011;8286;51.274;9.542;2023-05-29T05:47:09;4.18;;;2.60;;
16352;SDS011;8286;51.274;9.542;2023-05-29T05:49:36;3.55;;;2.90;;
16352;SDS011;8286;51.274;9.542;2023-05-29T05:52:02;3.38;;;2.58;;
16352;SDS011;8286;51.274;9.542;2023-05-29T05:54:29;4.07;;;2.75;;
16352;SDS011;8286;51.274;9.542;2023-05-29T05:56:56;5.30;;;3.10;;
16352;SDS011;8286;51.274;9.542;2023-05-29T05:59:22;5.38;;;2.90;;
16352;SDS011;8286;51.274;9.542;2023-05-29T06:01:50;4.60;;;3.10;;
16352;SDS011;8286;51.274;9.542;2023-05-29T06:04:17;4.45;;;3.13;;
16352;SDS011;8286;51.274;9.542;2023-05-29T06:06:44;4.32;;;2.85;;
16352;SDS011;8286;51.274;9.542;2023-05-29T06:09:10;5.05;;;3.22;;
16352;SDS011;8286;51.274;9.542;2023-05-29T06:11:37;3.95;;;2.90;;
16352;SDS011;8286;51.274;9.542;2023-05-29T06:14:03;5.43;;;2.92;;
16352;SDS011;8286;51.274;9.542;2023-05-29T06:16:30;3.45;;;2.70;;
16352;SDS011;8286;51.274;9.542;2023-05-29T06:18:58;4.30;;;2.60;;
16352;SDS011;8286;51.274;9.542;2023-05-29T06:21:25;3.25;;;2.75;;
16352;SDS011;8286;51.274;9.542;2023-05-29T06:23:51;3.45;;;2.80;;
16352;SDS011;8286;51.274;9.542;2023-05-29T06:26:18;4.10;;;3.00;;
16352;SDS011;8286;51.274;9.542;2023-05-29T06:28:45;3.63;;;3.08;;
16352;SDS011;8286;51.274;9.542;2023-05-29T06:31:11;3.10;;;2.50;;
16352;SDS011;8286;51.274;9.542;2023-05-29T06:33:38;4.68;;;2.92;;
16352;SDS011;8286;51.274;9.542;2023-05-29T06:36:06;2.58;;;2.38;;
16352;SDS011;8286;51.274;9.542;2023-05-29T06:38:33;3.38;;;2.80;;
16352;SDS011;8286;51.274;9.542;2023-05-29T06:40:59;5.15;;;2.83;;
16352;SDS011;8286;51.274;9.542;2023-05-29T06:43:26;2.80;;;2.50;;
16352;SDS011;8286;51.274;9.542;2023-05-29T06:45:53;4.80;;;2.83;;
16352;SDS011;8286;51.274;9.542;2023-05-29T06:48:20;6.47;;;2.90;;
16352;SDS011;8286;51.274;9.542;2023-05-29T06:50:47;7.90;;;3.00;;
16352;SDS011;8286;51.274;9.542;2023-05-29T06:53:15;5.20;;;3.20;;
16352;SDS011;8286;51.274;9.542;2023-05-29T06:55:42;2.92;;;2.60;;
16352;SDS011;8286;51.274;9.542;2023-05-29T06:58:08;4.70;;;3.00;;
16352;SDS011;8286;51.274;9.542;2023-05-29T07:00:35;4.22;;;2.83;;
16352;SDS011;8286;51.274;9.542;2023-05-29T07:03:01;4.97;;;3.20;;
16352;SDS011;8286;51.274;9.542;2023-05-29T07:05:28;3.15;;;2.75;;
16352;SDS011;8286;51.274;9.542;2023-05-29T07:07:54;3.53;;;2.80;;
16352;SDS011;8286;51.274;9.542;2023-05-29T07:10:22;5.80;;;3.15;;
16352;SDS011;8286;51.274;9.542;2023-05-29T07:12:49;5.20;;;2.65;;
16352;SDS011;8286;51.274;9.542;2023-05-29T07:15:15;4.55;;;2.97;;
16352;SDS011;8286;51.274;9.542;2023-05-29T07:17:42;4.38;;;3.03;;
16352;SDS011;8286;51.274;9.542;2023-05-29T07:20:09;4.32;;;3.10;;
16352;SDS011;8286;51.274;9.542;2023-05-29T07:22:36;5.03;;;3.15;;
16352;SDS011;8286;51.274;9.542;2023-05-29T07:25:02;3.35;;;3.05;;
16352;SDS011;8286;51.274;9.542;2023-05-29T07:27:31;3.47;;;2.75;;
16352;SDS011;8286;51.274;9.542;2023-05-29T07:29:57;5.47;;;3.22;;
16352;SDS011;8286;51.274;9.542;2023-05-29T07:32:24;4.63;;;3.42;;
16352;SDS011;8286;51.274;9.542;2023-05-29T07:34:50;3.28;;;2.97;;
16352;SDS011;8286;51.274;9.542;2023-05-29T07:37:17;3.53;;;2.88;;
16352;SDS011;8286;51.274;9.542;2023-05-29T07:39:44;3.63;;;3.33;;
16352;SDS011;8286;51.274;9.542;2023-05-29T07:42:10;3.80;;;2.80;;
16352;SDS011;8286;51.274;9.542;2023-05-29T07:44:38;5.55;;;2.75;;
16352;SDS011;8286;51.274;9.542;2023-05-29T07:47:06;4.13;;;2.88;;
16352;SDS011;8286;51.274;9.542;2023-05-29T07:49:33;3.47;;;3.17;;
16352;SDS011;8286;51.274;9.542;2023-05-29T07:52:00;5.85;;;3.00;;
16352;SDS011;8286;51.274;9.542;2023-05-29T07:54:27;4.88;;;3.10;;
16352;SDS011;8286;51.274;9.542;2023-05-29T07:56:54;5.40;;;3.17;;
16352;SDS011;8286;51.274;9.542;2023-05-29T07:59:20;5.40;;;3.15;;
16352;SDS011;8286;51.274;9.542;2023-05-29T08:01:48;6.20;;;2.85;;
16352;SDS011;8286;51.274;9.542;2023-05-29T08:04:15;4.90;;;2.72;;
16352;SDS011;8286;51.274;9.542;2023-05-29T08:06:41;3.35;;;2.90;;
16352;SDS011;8286;51.274;9.542;2023-05-29T08:09:08;4.25;;;3.00;;
16352;SDS011;8286;51.274;9.542;2023-05-29T08:11:35;4.43;;;2.80;;
16352;SDS011;8286;51.274;9.542;2023-05-29T08:14:02;4.90;;;2.72;;
16352;SDS011;8286;51.274;9.542;2023-05-29T08:16:28;3.80;;;2.63;;
16352;SDS011;8286;51.274;9.542;2023-05-29T08:18:56;3.90;;;3.30;;
16352;SDS011;8286;51.274;9.542;2023-05-29T08:21:22;3.80;;;3.45;;
16352;SDS011;8286;51.274;9.542;2023-05-29T08:23:50;5.03;;;3.38;;
16352;SDS011;8286;51.274;9.542;2023-05-29T08:26:17;3.80;;;2.65;;
16352;SDS011;8286;51.274;9.542;2023-05-29T08:28:43;3.08;;;2.88;;
16352;SDS011;8286;51.274;9.542;2023-05-29T08:31:10;3.03;;;2.60;;
16352;SDS011;8286;51.274;9.542;2023-05-29T08:33:37;3.00;;;2.80;;
16352;SDS011;8286;51.274;9.542;2023-05-29T08:36:05;4.38;;;2.88;;
16352;SDS011;8286;51.274;9.542;2023-05-29T08:38:31;3.60;;;3.13;;
16352;SDS011;8286;51.274;9.542;2023-05-29T08:40:58;5.38;;;3.05;;
16352;SDS011;8286;51.274;9.542;2023-05-29T08:43:25;3.60;;;2.97;;
16352;SDS011;8286;51.274;9.542;2023-05-29T08:45:56;3.92;;;2.42;;
16352;SDS011;8286;51.274;9.542;2023-05-29T08:48:26;5.55;;;3.22;;
16352;SDS011;8286;51.274;9.542;2023-05-29T08:50:54;3.92;;;2.90;;
16352;SDS011;8286;51.274;9.542;2023-05-29T08:53:24;3.58;;;2.67;;
16352;SDS011;8286;51.274;9.542;2023-05-29T08:55:52;4.93;;;3.72;;
16352;SDS011;8286;51.274;9.542;2023-05-29T08:58:21;5.55;;;3.30;;
16352;SDS011;8286;51.274;9.542;2023-05-29T09:00:48;5.97;;;3.40;;
16352;SDS011;8286;51.274;9.542;2023-05-29T09:03:15;6.22;;;3.30;;
16352;SDS011;8286;51.274;9.542;2023-05-29T09:05:42;5.18;;;3.50;;
16352;SDS011;8286;51.274;9.542;2023-05-29T09:08:09;4.88;;;3.03;;
16352;SDS011;8286;51.274;9.542;2023-05-29T09:10:38;6.65;;;2.72;;
16352;SDS011;8286;51.274;9.542;2023-05-29T09:13:06;4.07;;;2.67;;
16352;SDS011;8286;51.274;9.542;2023-05-29T09:15:34;7.18;;;2.50;;
16352;SDS011;8286;51.274;9.542;2023-05-29T09:18:01;5.82;;;2.20;;
16352;SDS011;8286;51.274;9.542;2023-05-29T09:20:29;5.20;;;2.67;;
16352;SDS011;8286;51.274;9.542;2023-05-29T09:22:56;4.32;;;2.92;;
16352;SDS011;8286;51.274;9.542;2023-05-29T09:25:26;3.53;;;2.65;;
16352;SDS011;8286;51.274;9.542;2023-05-29T09:27:57;5.60;;;2.85;;
16352;SDS011;8286;51.274;9.542;2023-05-29T09:30:34;7.22;;;2.88;;
16352;SDS011;8286;51.274;9.542;2023-05-29T09:33:03;4.95;;;2.75;;
16352;SDS011;8286;51.274;9.542;2023-05-29T09:35:34;4.22;;;2.80;;
16352;SDS011;8286;51.274;9.542;2023-05-29T09:38:01;4.85;;;2.78;;
16352;SDS011;8286;51.274;9.542;2023-05-29T09:40:31;6.05;;;2.70;;
16352;SDS011;8286;51.274;9.542;2023-05-29T09:43:03;5.93;;;2.55;;
16352;SDS011;8286;51.274;9.542;2023-05-29T09:45:36;3.72;;;2.85;;
16352;SDS011;8286;51.274;9.542;2023-05-29T09:48:04;3.20;;;2.80;;
16352;SDS011;8286;51.274;9.542;2023-05-29T09:50:31;6.35;;;2.70;;
16352;SDS011;8286;51.274;9.542;2023-05-29T09:52:58;5.55;;;2.70;;
16352;SDS011;8286;51.274;9.542;2023-05-29T09:55:26;4.50;;;2.58;;
16352;SDS011;8286;51.274;9.542;2023-05-29T09:57:54;5.13;;;2.90;;
16352;SDS011;8286;51.274;9.542;2023-05-29T10:00:22;3.95;;;2.83;;
16352;SDS011;8286;51.274;9.542;2023-05-29T10:02:50;5.40;;;3.35;;
16352;SDS011;8286;51.274;9.542;2023-05-29T10:05:16;3.63;;;2.80;;
16352;SDS011;8286;51.274;9.542;2023-05-29T10:07:43;4.25;;;3.13;;
16352;SDS011;8286;51.274;9.542;2023-05-29T10:10:13;4.10;;;3.00;;
16352;SDS011;8286;51.274;9.542;2023-05-29T10:12:42;6.95;;;2.83;;
16352;SDS011;8286;51.274;9.542;2023-05-29T10:15:11;3.92;;;2.97;;
16352;SDS011;8286;51.274;9.542;2023-05-29T10:17:41;6.40;;;2.70;;
16352;SDS011;8286;51.274;9.542;2023-05-29T10:20:15;4.78;;;2.58;;
16352;SDS011;8286;51.274;9.542;2023-05-29T10:22:45;4.03;;;2.90;;
16352;SDS011;8286;51.274;9.542;2023-05-29T10:25:12;3.83;;;3.10;;
16352;SDS011;8286;51.274;9.542;2023-05-29T10:27:39;5.10;;;2.97;;
16352;SDS011;8286;51.274;9.542;2023-05-29T10:30:06;5.97;;;3.25;;
16352;SDS011;8286;51.274;9.542;2023-05-29T10:32:42;5.88;;;3.38;;
16352;SDS011;8286;51.274;9.542;2023-05-29T10:35:12;3.72;;;2.67;;
16352;SDS011;8286;51.274;9.542;2023-05-29T10:37:42;4.78;;;2.78;;
16352;SDS011;8286;51.274;9.542;2023-05-29T10:40:11;4.57;;;2.80;;
16352;SDS011;8286;51.274;9.542;2023-05-29T10:42:41;4.95;;;3.10;;
16352;SDS011;8286;51.274;9.542;2023-05-29T10:45:09;3.92;;;2.85;;
16352;SDS011;8286;51.274;9.542;2023-05-29T10:47:36;8.25;;;3.33;;
16352;SDS011;8286;51.274;9.542;2023-05-29T10:50:05;4.75;;;2.70;;
16352;SDS011;8286;51.274;9.542;2023-05-29T10:52:32;4.18;;;3.00;;
16352;SDS011;8286;51.274;9.542;2023-05-29T10:54:59;5.15;;;2.75;;
16352;SDS011;8286;51.274;9.542;2023-05-29T10:57:29;3.40;;;3.10;;
16352;SDS011;8286;51.274;9.542;2023-05-29T11:00:04;3.00;;;2.63;;
16352;SDS011;8286;51.274;9.542;2023-05-29T11:02:37;3.63;;;2.70;;
16352;SDS011;8286;51.274;9.542;2023-05-29T11:05:07;2.90;;;2.60;;
16352;SDS011;8286;51.274;9.542;2023-05-29T11:07:57;5.63;;;2.50;;
16352;SDS011;8286;51.274;9.542;2023-05-29T11:10:42;5.05;;;2.60;;
16352;SDS011;8286;51.274;9.542;2023-05-29T11:13:31;5.63;;;2.45;;
16352;SDS011;8286;51.274;9.542;2023-05-29T11:16:05;6.18;;;2.90;;
16352;SDS011;8286;51.274;9.542;2023-05-29T11:18:38;4.28;;;2.83;;
16352;SDS011;8286;51.274;9.542;2023-05-29T11:21:08;3.22;;;2.83;;
16352;SDS011;8286;51.274;9.542;2023-05-29T11:23:41;3.17;;;2.58;;
16352;SDS011;8286;51.274;9.542;2023-05-29T11:26:09;5.00;;;2.95;;
16352;SDS011;8286;51.274;9.542;2023-05-29T11:28:36;6.40;;;2.50;;
16352;SDS011;8286;51.274;9.542;2023-05-29T11:31:04;6.35;;;2.88;;
16352;SDS011;8286;51.274;9.542;2023-05-29T11:33:35;4.13;;;2.65;;
16352;SDS011;8286;51.274;9.542;2023-05-29T11:36:03;5.90;;;3.10;;
16352;SDS011;8286;51.274;9.542;2023-05-29T11:38:32;4.20;;;2.85;;
16352;SDS011;8286;51.274;9.542;2023-05-29T11:41:00;5.90;;;3.00;;
16352;SDS011;8286;51.274;9.542;2023-05-29T11:43:28;6.78;;;3.30;;
16352;SDS011;8286;51.274;9.542;2023-05-29T11:45:55;6.13;;;3.63;;
16352;SDS011;8286;51.274;9.542;2023-05-29T11:48:21;4.47;;;2.97;;
16352;SDS011;8286;51.274;9.542;2023-05-29T11:50:48;3.25;;;2.60;;
16352;SDS011;8286;51.274;9.542;2023-05-29T11:53:15;3.90;;;2.47;;
16352;SDS011;8286;51.274;9.542;2023-05-29T11:55:43;3.42;;;2.70;;
16352;SDS011;8286;51.274;9.542;2023-05-29T11:58:09;4.97;;;3.17;;
16352;SDS011;8286;51.274;9.542;2023-05-29T12:00:37;5.70;;;2.50;;
16352;SDS011;8286;51.274;9.542;2023-05-29T12:03:05;3.35;;;2.97;;
16352;SDS011;8286;51.274;9.542;2023-05-29T12:05:32;6.95;;;2.85;;
16352;SDS011;8286;51.274;9.542;2023-05-29T12:08:10;6.45;;;3.10;;
16352;SDS011;8286;51.274;9.542;2023-05-29T12:10:36;4.15;;;2.85;;
16352;SDS011;8286;51.274;9.542;2023-05-29T12:13:04;4.28;;;2.53;;
16352;SDS011;8286;51.274;9.542;2023-05-29T12:15:31;5.22;;;2.88;;
16352;SDS011;8286;51.274;9.542;2023-05-29T12:17:57;4.50;;;2.78;;
16352;SDS011;8286;51.274;9.542;2023-05-29T12:20:25;7.13;;;3.63;;
16352;SDS011;8286;51.274;9.542;2023-05-29T12:22:52;4.97;;;3.00;;
16352;SDS011;8286;51.274;9.542;2023-05-29T12:25:19;7.82;;;2.47;;
16352;SDS011;8286;51.274;9.542;2023-05-29T12:27:46;5.35;;;2.88;;
16352;SDS011;8286;51.274;9.542;2023-05-29T12:30:21;5.03;;;2.80;;
16352;SDS011;8286;51.274;9.542;2023-05-29T12:32:49;6.72;;;3.28;;
16352;SDS011;8286;51.274;9.542;2023-05-29T12:35:17;7.93;;;3.00;;
16352;SDS011;8286;51.274;9.542;2023-05-29T12:37:45;4.63;;;3.10;;
16352;SDS011;8286;51.274;9.542;2023-05-29T12:40:16;4.25;;;2.42;;
16352;SDS011;8286;51.274;9.542;2023-05-29T12:42:43;5.70;;;3.00;;
16352;SDS011;8286;51.274;9.542;2023-05-29T12:45:11;4.82;;;2.40;;
16352;SDS011;8286;51.274;9.542;2023-05-29T12:47:45;8.65;;;3.10;;
16352;SDS011;8286;51.274;9.542;2023-05-29T12:50:19;9.43;;;3.08;;
16352;SDS011;8286;51.274;9.542;2023-05-29T12:52:52;4.65;;;2.58;;
16352;SDS011;8286;51.274;9.542;2023-05-29T12:55:19;9.80;;;3.20;;
16352;SDS011;8286;51.274;9.542;2023-05-29T12:57:46;5.18;;;2.47;;
16352;SDS011;8286;51.274;9.542;2023-05-29T13:00:13;7.35;;;2.65;;
16352;SDS011;8286;51.274;9.542;2023-05-29T13:02:39;4.85;;;3.00;;
16352;SDS011;8286;51.274;9.542;2023-05-29T13:05:08;5.38;;;3.10;;
16352;SDS011;8286;51.274;9.542;2023-05-29T13:07:34;7.03;;;3.33;;
16352;SDS011;8286;51.274;9.542;2023-05-29T13:10:01;6.63;;;3.15;;
16352;SDS011;8286;51.274;9.542;2023-05-29T13:12:28;4.35;;;3.13;;
16352;SDS011;8286;51.274;9.542;2023-05-29T13:14:54;6.13;;;2.72;;
16352;SDS011;8286;51.274;9.542;2023-05-29T13:17:21;4.40;;;2.47;;
16352;SDS011;8286;51.274;9.542;2023-05-29T13:19:48;9.38;;;3.13;;
16352;SDS011;8286;51.274;9.542;2023-05-29T13:22:16;4.80;;;2.90;;
16352;SDS011;8286;51.274;9.542;2023-05-29T13:24:42;5.30;;;2.80;;
16352;SDS011;8286;51.274;9.542;2023-05-29T13:27:09;6.80;;;2.85;;
16352;SDS011;8286;51.274;9.542;2023-05-29T13:29:38;5.45;;;2.83;;
16352;SDS011;8286;51.274;9.542;2023-05-29T13:32:06;3.65;;;2.78;;
16352;SDS011;8286;51.274;9.542;2023-05-29T13:34:33;4.53;;;2.45;;
16352;SDS011;8286;51.274;9.542;2023-05-29T13:37:00;4.65;;;2.88;;
16352;SDS011;8286;51.274;9.542;2023-05-29T13:39:31;7.60;;;3.03;;
16352;SDS011;8286;51.274;9.542;2023-05-29T13:41:57;6.20;;;2.58;;
16352;SDS011;8286;51.274;9.542;2023-05-29T13:44:24;2.47;;;2.25;;
16352;SDS011;8286;51.274;9.542;2023-05-29T13:46:50;6.40;;;2.78;;
16352;SDS011;8286;51.274;9.542;2023-05-29T13:49:17;4.60;;;2.40;;
16352;SDS011;8286;51.274;9.542;2023-05-29T13:51:43;5.82;;;2.78;;
16352;SDS011;8286;51.274;9.542;2023-05-29T13:54:12;6.55;;;2.95;;
16352;SDS011;8286;51.274;9.542;2023-05-29T13:56:40;5.03;;;3.08;;
16352;SDS011;8286;51.274;9.542;2023-05-29T13:59:06;3.05;;;2.60;;
16352;SDS011;8286;51.274;9.542;2023-05-29T14:01:33;6.90;;;2.63;;
16352;SDS011;8286;51.274;9.542;2023-05-29T14:03:59;5.50;;;2.80;;
16352;SDS011;8286;51.274;9.542;2023-05-29T14:06:26;5.97;;;2.78;;
16352;SDS011;8286;51.274;9.542;2023-05-29T14:08:53;8.02;;;2.63;;
16352;SDS011;8286;51.274;9.542;2023-05-29T14:11:20;5.97;;;3.05;;
16352;SDS011;8286;51.274;9.542;2023-05-29T14:13:48;7.32;;;3.22;;
16352;SDS011;8286;51.274;9.542;2023-05-29T14:16:15;4.80;;;2.65;;
16352;SDS011;8286;51.274;9.542;2023-05-29T14:18:41;5.90;;;2.60;;
16352;SDS011;8286;51.274;9.542;2023-05-29T14:21:08;4.15;;;2.90;;
16352;SDS011;8286;51.274;9.542;2023-05-29T14:23:35;6.32;;;2.65;;
16352;SDS011;8286;51.274;9.542;2023-05-29T14:26:01;6.82;;;2.70;;
16352;SDS011;8286;51.274;9.542;2023-05-29T14:28:28;6.60;;;2.75;;
16352;SDS011;8286;51.274;9.542;2023-05-29T14:30:56;5.82;;;2.72;;
16352;SDS011;8286;51.274;9.542;2023-05-29T14:33:23;4.53;;;2.50;;
16352;SDS011;8286;51.274;9.542;2023-05-29T14:35:50;4.15;;;2.47;;
16352;SDS011;8286;51.274;9.542;2023-05-29T14:38:16;7.18;;;2.70;;
16352;SDS011;8286;51.274;9.542;2023-05-29T14:40:43;7.05;;;2.45;;
16352;SDS011;8286;51.274;9.542;2023-05-29T14:43:10;4.72;;;2.58;;
16352;SDS011;8286;51.274;9.542;2023-05-29T14:45:36;4.63;;;2.33;;
16352;SDS011;8286;51.274;9.542;2023-05-29T14:48:04;8.25;;;2.90;;
16352;SDS011;8286;51.274;9.542;2023-05-29T14:50:30;6.55;;;2.63;;
16352;SDS011;8286;51.274;9.542;2023-05-29T14:52:57;7.30;;;3.10;;
16352;SDS011;8286;51.274;9.542;2023-05-29T14:55:23;5.88;;;2.60;;
16352;SDS011;8286;51.274;9.542;2023-05-29T14:57:50;4.10;;;2.15;;
16352;SDS011;8286;51.274;9.542;2023-05-29T15:00:17;6.03;;;3.00;;
16352;SDS011;8286;51.274;9.542;2023-05-29T15:02:44;5.20;;;2.13;;